Terminal Aerodrome Forecast
Issued by NWS Mt. Holly, NJ

Home | Current Version | Previous Version | Text Only | Print | Product List | Glossary On
Versions: 1 2 3 4 5 6 7 8 9 10 11 12 13 14 15 16 17 18
039
FTUS41 KPHI 092117 AAA
TAFILG
TAF AMD
KILG 092117Z 0921/1018 05006KT 1/2SM SN FG OVC006
      TEMPO 0922/0924 2SM -SN BR OVC005
     FM100000 VRB03KT 2SM -SN BR OVC006
     FM100200 VRB03KT 3SM BR OVC009
     FM100500 28008KT 4SM BR OVC010
     FM100800 28010KT 4SM BR OVC015
     FM101100 28013G20KT P6SM SCT020 BKN060=

USA.gov is the U.S. government's official web portal to all federal, state and local government web resources and services.